Time;durP1;ratioP1;P1;durP2;ratioP2;P2;SDS_P1;SDS_P2;PMS_P1;PMS_P2;Temp;Humidity;BMP_temperature;BMP_pressure;BME280_temperature;BME280_humidity;BME280_pressure;Samples;Min_cycle;Max_cycle;Signal;HPM_P1;HPM_P2
2023/05/04 00:03:11;;;;;;;;;;;12.90;85.90;;;;;;5473030;23;19938;-96
2023/05/04 00:06:21;;;;;;;;;;;;;;;;;;;;;
2023/05/04 00:08:51;;;;;;;;;;;12.70;87.90;;;;;;4963186;28;19938;-96
2023/05/04 00:11:45;;;;;;;;;;;12.60;88.10;;;;;;4959619;29;19911;-96
2023/05/04 00:51:03;;;;;;;;;;;13.10;87.10;;;;;;4875270;23;19926;-96
2023/05/04 00:53:39;;;;;;;;;;;13.10;86.80;;;;;;4922178;29;19910;-96
2023/05/04 01:01:35;;;;;;;;;;;12.90;87.40;;;;;;4998394;23;19911;-96
2023/05/04 01:30:11;;;;;;;;;;;12.50;88.60;;;;;;5441131;23;19927;-96
2023/05/04 02:17:03;;;;;;;;;;;12.30;88.20;;;;;;5388987;23;19951;-96
2023/05/04 02:22:39;;;;;;;;;;;12.20;88.20;;;;;;5859459;23;19994;-96
2023/05/04 02:25:12;;;;;;;;;;;12.30;88.00;;;;;;4943561;29;19945;-96
2023/05/04 02:32:54;;;;;;;;;;;12.30;87.80;;;;;;5079621;23;19912;-96
2023/05/04 02:35:27;;;;;;;;;;;12.20;87.80;;;;;;4925096;29;19941;-96
2023/05/04 02:37:56;;;;;;;;;;;12.20;87.90;;;;;;4925056;29;19908;-96
2023/05/04 02:40:48;;;;;;;;;;;12.20;87.80;;;;;;4925399;29;19959;-96
2023/05/04 02:43:31;;;;;;;;;;;12.30;87.70;;;;;;4941224;29;19899;-96
2023/05/04 02:46:08;;;;;;;;;;;12.30;87.50;;;;;;4936787;29;19900;-96
2023/05/04 02:48:48;;;;;;;;;;;12.30;87.60;;;;;;4940473;29;19911;-96
2023/05/04 02:51:18;;;;;;;;;;;12.30;87.30;;;;;;4924974;29;19911;-96
2023/05/04 02:54:07;;;;;;;;;;;12.20;86.90;;;;;;4938348;29;19899;-96
2023/05/04 02:56:56;;;;;;;;;;;12.20;87.20;;;;;;4940400;29;19958;-96
2023/05/04 02:59:35;;;;;;;;;;;12.10;87.40;;;;;;4925003;29;19918;-96
2023/05/04 03:02:05;;;;;;;;;;;12.20;87.20;;;;;;4941522;29;19903;-96
2023/05/04 03:04:43;;;;;;;;;;;12.20;87.30;;;;;;4924307;29;19919;-96
2023/05/04 03:07:12;;;;;;;;;;;12.20;87.60;;;;;;4924593;29;19905;-96
2023/05/04 03:09:54;;;;;;;;;;;12.20;87.30;;;;;;4940760;29;19915;-96
2023/05/04 03:12:27;;;;;;;;;;;12.20;87.00;;;;;;4924981;29;19939;-96
2023/05/04 03:15:16;;;;;;;;;;;12.00;86.50;;;;;;4940069;29;19900;-96
2023/05/04 03:17:50;;;;;;;;;;;12.00;86.70;;;;;;4925185;29;19923;-96
2023/05/04 03:22:58;;;;;;;;;;;11.80;87.50;;;;;;5550700;23;19927;-96
2023/05/04 03:25:48;;;;;;;;;;;11.80;87.20;;;;;;4962698;29;19907;-96
2023/05/04 03:28:39;;;;;;;;;;;11.80;87.20;;;;;;4962328;29;19942;-96
2023/05/04 03:31:16;;;;;;;;;;;11.80;87.30;;;;;;4979616;28;19937;-96
2023/05/04 03:34:05;;;;;;;;;;;11.70;87.50;;;;;;4963319;28;19931;-96
2023/05/04 03:36:43;;;;;;;;;;;11.70;87.30;;;;;;4963610;28;19913;-96
2023/05/04 03:39:21;;;;;;;;;;;11.60;87.30;;;;;;4962074;28;19914;-96
2023/05/04 03:41:53;;;;;;;;;;;11.60;87.60;;;;;;4956249;28;19915;-96
2023/05/04 03:44:30;;;;;;;;;;;11.60;87.90;;;;;;4947069;29;19915;-96
2023/05/04 03:47:22;;;;;;;;;;;11.50;88.00;;;;;;4963085;28;19922;-96
2023/05/04 03:49:54;;;;;;;;;;;11.60;88.40;;;;;;4946821;29;19899;-96
2023/05/04 03:52:28;;;;;;;;;;;11.60;87.90;;;;;;4945645;28;19915;-96
2023/05/04 03:54:56;;;;;;;;;;;11.50;87.70;;;;;;4930306;29;19925;-96
2023/05/04 03:57:33;;;;;;;;;;;11.60;87.90;;;;;;4962924;28;19923;-96
2023/05/04 04:00:04;;;;;;;;;;;11.40;88.30;;;;;;4946295;29;19899;-96
2023/05/04 04:02:36;;;;;;;;;;;11.40;88.50;;;;;;4930952;29;19899;-96
2023/05/04 04:05:08;;;;;;;;;;;11.40;88.70;;;;;;4946313;29;19946;-96
2023/05/04 04:07:36;;;;;;;;;;;11.40;89.00;;;;;;4930629;29;19978;-96
2023/05/04 04:10:05;;;;;;;;;;;11.50;89.40;;;;;;4945594;28;19895;-96
2023/05/04 04:12:44;;;;;;;;;;;11.50;89.50;;;;;;4946526;29;19902;-96
2023/05/04 04:23:08;;;;;;;;;;;11.60;89.30;;;;;;5457080;23;19911;-96
2023/05/04 04:25:37;;;;;;;;;;;11.60;89.30;;;;;;4944032;29;19938;-96
2023/05/04 04:28:06;;;;;;;;;;;11.60;89.40;;;;;;4958416;29;19910;-96
2023/05/04 04:30:35;;;;;;;;;;;11.60;89.50;;;;;;4958371;29;20363;-96
2023/05/04 04:33:02;;;;;;;;;;;11.60;89.50;;;;;;4952170;29;19918;-96
2023/05/04 04:35:29;;;;;;;;;;;11.60;89.60;;;;;;4942860;29;19955;-96
2023/05/04 04:37:58;;;;;;;;;;;11.50;89.50;;;;;;4943004;29;19982;-96
2023/05/04 04:40:27;;;;;;;;;;;11.40;89.30;;;;;;4941997;29;19911;-96
2023/05/04 04:42:55;;;;;;;;;;;11.40;89.50;;;;;;4943786;29;19914;-96
2023/05/04 04:45:23;;;;;;;;;;;11.40;89.70;;;;;;4943504;29;19911;-96
2023/05/04 04:47:53;;;;;;;;;;;11.40;89.70;;;;;;4944486;28;19923;-96
2023/05/04 04:50:21;;;;;;;;;;;11.40;90.00;;;;;;4943666;29;19911;-96
2023/05/04 04:52:51;;;;;;;;;;;11.40;89.90;;;;;;4944634;29;19921;-96
2023/05/04 04:55:19;;;;;;;;;;;11.40;89.90;;;;;;4941039;29;19915;-96
2023/05/04 04:57:49;;;;;;;;;;;11.40;90.00;;;;;;4960517;29;20018;-96
2023/05/04 05:00:17;;;;;;;;;;;11.40;90.20;;;;;;4944027;29;19907;-96
2023/05/04 05:02:47;;;;;;;;;;;11.40;91.00;;;;;;4960484;29;19919;-96
2023/05/04 05:05:13;;;;;;;;;;;11.50;90.80;;;;;;4939111;29;19911;-96
2023/05/04 05:07:40;;;;;;;;;;;11.60;90.80;;;;;;4937839;29;19910;-96
2023/05/04 05:10:07;;;;;;;;;;;11.80;90.70;;;;;;4939028;29;19939;-96
2023/05/04 05:12:33;;;;;;;;;;;11.80;90.40;;;;;;4939324;29;19911;-96
2023/05/04 05:14:59;;;;;;;;;;;11.90;90.00;;;;;;4940429;29;19917;-96
2023/05/04 05:17:26;;;;;;;;;;;12.10;89.60;;;;;;4940216;29;19918;-96
2023/05/04 05:19:55;;;;;;;;;;;12.20;89.40;;;;;;4939090;29;19935;-95
2023/05/04 05:22:21;;;;;;;;;;;12.30;89.00;;;;;;4934779;29;19923;-96
2023/05/04 05:24:46;;;;;;;;;;;12.50;88.80;;;;;;4936656;29;19922;-96
2023/05/04 05:27:13;;;;;;;;;;;12.60;88.60;;;;;;4937203;29;19911;-96
2023/05/04 05:29:39;;;;;;;;;;;12.80;88.30;;;;;;4937726;29;19918;-96
2023/05/04 05:32:06;;;;;;;;;;;13.00;88.10;;;;;;4938006;29;19911;-96
2023/05/04 05:34:38;;;;;;;;;;;13.10;87.60;;;;;;4939944;29;19946;-96
2023/05/04 05:37:04;;;;;;;;;;;13.20;86.80;;;;;;4940813;29;19982;-96
2023/05/04 05:39:39;;;;;;;;;;;13.30;86.30;;;;;;4942104;29;19902;-96
2023/05/04 05:42:06;;;;;;;;;;;13.30;85.50;;;;;;4959607;29;20525;-96
2023/05/04 05:44:47;;;;;;;;;;;13.40;85.50;;;;;;4943266;29;19918;-96
2023/05/04 05:47:21;;;;;;;;;;;13.60;85.40;;;;;;4941620;29;19911;-96
2023/05/04 05:49:53;;;;;;;;;;;13.60;84.70;;;;;;4926428;29;19915;-96
2023/05/04 05:52:22;;;;;;;;;;;13.80;84.90;;;;;;4942732;29;19943;-96
2023/05/04 05:54:48;;;;;;;;;;;13.90;84.70;;;;;;4935833;29;19911;-96
2023/05/04 05:57:14;;;;;;;;;;;14.00;84.40;;;;;;4948479;29;19922;-96
2023/05/04 05:59:43;;;;;;;;;;;14.20;84.10;;;;;;4933589;29;19926;-96
2023/05/04 06:02:16;;;;;;;;;;;14.30;84.00;;;;;;4944269;29;19919;-96
2023/05/04 06:04:44;;;;;;;;;;;14.30;83.30;;;;;;4962510;23;19923;-96
2023/05/04 06:07:09;;;;;;;;;;;14.40;82.80;;;;;;4955309;29;19918;-96
2023/05/04 06:09:35;;;;;;;;;;;14.60;82.80;;;;;;4938781;29;19911;-96
2023/05/04 06:12:02;;;;;;;;;;;14.70;82.60;;;;;;4938828;29;20398;-96
2023/05/04 06:14:27;;;;;;;;;;;14.70;82.10;;;;;;4956047;29;19911;-96
2023/05/04 06:16:53;;;;;;;;;;;14.80;81.30;;;;;;4938744;29;19925;-96
2023/05/04 06:19:18;;;;;;;;;;;14.80;81.30;;;;;;4938651;29;20053;-96
2023/05/04 06:21:47;;;;;;;;;;;14.90;81.40;;;;;;4939474;29;19946;-96
2023/05/04 06:24:12;;;;;;;;;;;15.10;81.70;;;;;;4938838;29;20381;-96
2023/05/04 06:26:38;;;;;;;;;;;15.10;81.70;;;;;;4957051;29;19993;-96
2023/05/04 06:29:04;;;;;;;;;;;15.10;82.00;;;;;;4956485;29;19917;-96
2023/05/04 06:31:29;;;;;;;;;;;15.10;82.10;;;;;;4938807;29;19910;-96
2023/05/04 06:33:56;;;;;;;;;;;15.20;82.10;;;;;;4938833;29;19910;-96
2023/05/04 06:36:24;;;;;;;;;;;15.20;82.30;;;;;;4938487;29;19980;-96
2023/05/04 06:38:50;;;;;;;;;;;15.30;82.00;;;;;;4938743;29;20267;-96
2023/05/04 06:41:15;;;;;;;;;;;15.30;81.30;;;;;;4955573;29;19974;-96
2023/05/04 06:43:41;;;;;;;;;;;15.40;80.30;;;;;;4949813;29;19915;-96
2023/05/04 06:46:06;;;;;;;;;;;15.40;80.20;;;;;;4919589;29;20386;-96
2023/05/04 06:48:34;;;;;;;;;;;15.50;80.20;;;;;;4936490;29;20290;-96
2023/05/04 06:51:00;;;;;;;;;;;15.60;79.60;;;;;;4936631;29;20446;-96
2023/05/04 06:53:26;;;;;;;;;;;15.70;79.00;;;;;;4936774;29;19983;-96
2023/05/04 06:55:51;;;;;;;;;;;15.70;79.30;;;;;;4919430;29;19918;-96
2023/05/04 06:58:20;;;;;;;;;;;15.80;79.10;;;;;;4919057;29;19921;-96
2023/05/04 07:00:46;;;;;;;;;;;15.80;78.70;;;;;;4919301;29;19910;-96
2023/05/04 07:03:12;;;;;;;;;;;16.00;78.40;;;;;;4919020;29;19933;-96
2023/05/04 07:05:38;;;;;;;;;;;16.10;78.20;;;;;;4918925;29;20466;-96
2023/05/04 07:08:03;;;;;;;;;;;16.20;78.60;;;;;;4938491;29;19911;-96
2023/05/04 07:10:29;;;;;;;;;;;16.30;78.40;;;;;;4939887;29;20283;-96
2023/05/04 07:12:55;;;;;;;;;;;16.30;77.20;;;;;;4939694;29;19911;-96
2023/05/04 07:15:20;;;;;;;;;;;16.40;76.30;;;;;;4922612;29;19915;-96
2023/05/04 07:17:46;;;;;;;;;;;16.50;75.60;;;;;;4922396;29;19915;-96
2023/05/04 07:20:14;;;;;;;;;;;16.50;73.30;;;;;;4922421;29;19911;-96
2023/05/04 07:22:39;;;;;;;;;;;16.60;72.40;;;;;;4922482;29;19958;-96
2023/05/04 07:25:05;;;;;;;;;;;16.80;72.60;;;;;;4922440;29;19942;-95
2023/05/04 07:27:31;;;;;;;;;;;16.80;73.20;;;;;;4939431;29;19969;-96
2023/05/04 07:29:56;;;;;;;;;;;16.90;73.60;;;;;;4922413;29;20382;-96
2023/05/04 07:32:22;;;;;;;;;;;16.90;73.30;;;;;;4939184;29;19915;-96
2023/05/04 07:34:48;;;;;;;;;;;17.00;72.60;;;;;;4939365;29;19911;-96
2023/05/04 07:37:14;;;;;;;;;;;17.10;72.80;;;;;;4922151;29;19937;-96
2023/05/04 07:39:40;;;;;;;;;;;17.20;73.00;;;;;;4922152;29;20393;-96
2023/05/04 07:42:06;;;;;;;;;;;17.20;72.60;;;;;;4939070;29;19911;-96
2023/05/04 07:44:32;;;;;;;;;;;17.30;73.20;;;;;;4939005;29;20025;-96
2023/05/04 07:46:58;;;;;;;;;;;17.30;74.30;;;;;;4939423;29;20379;-96
2023/05/04 07:49:23;;;;;;;;;;;17.40;73.60;;;;;;4939298;29;19934;-96
2023/05/04 07:51:50;;;;;;;;;;;17.40;72.20;;;;;;4923101;29;19915;-96
2023/05/04 07:54:15;;;;;;;;;;;17.50;72.10;;;;;;4922399;29;20378;-96
2023/05/04 07:56:41;;;;;;;;;;;17.60;72.40;;;;;;4922028;29;19918;-96
2023/05/04 07:59:06;;;;;;;;;;;17.70;72.60;;;;;;4922403;29;19993;-96
2023/05/04 08:01:32;;;;;;;;;;;17.70;68.70;;;;;;4921816;29;19911;-96
2023/05/04 08:03:58;;;;;;;;;;;17.80;65.00;;;;;;4922246;29;19911;-96
2023/05/04 08:06:23;;;;;;;;;;;17.90;70.00;;;;;;4921749;29;20295;-96
2023/05/04 08:08:49;;;;;;;;;;;18.00;67.80;;;;;;4938762;29;19933;-96
2023/05/04 08:11:14;;;;;;;;;;;18.00;66.80;;;;;;4938990;29;19997;-96
2023/05/04 08:13:40;;;;;;;;;;;18.10;67.30;;;;;;4939454;29;20306;-96
2023/05/04 08:16:08;;;;;;;;;;;18.20;67.70;;;;;;4938896;29;19965;-96
2023/05/04 08:18:33;;;;;;;;;;;18.20;65.60;;;;;;4938253;29;20413;-96
2023/05/04 08:20:59;;;;;;;;;;;18.30;64.30;;;;;;4921886;29;19911;-96
2023/05/04 08:23:24;;;;;;;;;;;18.40;64.50;;;;;;4938913;29;19926;-96
2023/05/04 08:25:51;;;;;;;;;;;18.40;64.50;;;;;;4922161;29;19911;-96
2023/05/04 08:28:17;;;;;;;;;;;18.40;64.30;;;;;;4921258;29;19954;-95
2023/05/04 08:30:42;;;;;;;;;;;18.50;63.10;;;;;;4938411;29;20001;-96
2023/05/04 08:33:08;;;;;;;;;;;18.50;64.20;;;;;;4921175;29;20282;-96
2023/05/04 08:35:34;;;;;;;;;;;18.50;62.30;;;;;;4921249;29;19915;-96
2023/05/04 08:38:00;;;;;;;;;;;18.60;61.90;;;;;;4921172;29;20463;-96
2023/05/04 08:40:26;;;;;;;;;;;18.60;64.20;;;;;;4938363;29;19910;-96
2023/05/04 08:42:52;;;;;;;;;;;18.70;64.50;;;;;;4921108;29;19914;-96
2023/05/04 08:45:17;;;;;;;;;;;18.80;65.70;;;;;;4921236;29;19917;-96
2023/05/04 08:47:43;;;;;;;;;;;18.80;64.70;;;;;;4938483;29;20384;-96
2023/05/04 08:50:10;;;;;;;;;;;18.80;63.90;;;;;;4921321;29;19917;-96
2023/05/04 08:52:36;;;;;;;;;;;18.80;63.10;;;;;;4921476;29;19911;-96
2023/05/04 08:55:03;;;;;;;;;;;18.80;63.20;;;;;;4921307;29;19911;-96
2023/05/04 08:57:29;;;;;;;;;;;18.80;64.00;;;;;;4938665;29;19922;-96
2023/05/04 08:59:55;;;;;;;;;;;18.90;66.90;;;;;;4938934;29;19910;-96
2023/05/04 09:02:21;;;;;;;;;;;19.10;67.30;;;;;;4921422;29;19910;-96
2023/05/04 09:04:51;;;;;;;;;;;19.10;63.60;;;;;;4938084;29;19911;-96
2023/05/04 09:07:17;;;;;;;;;;;19.20;67.70;;;;;;4921020;29;19915;-96
2023/05/04 09:09:43;;;;;;;;;;;19.30;64.40;;;;;;4938007;29;19918;-96
2023/05/04 09:12:09;;;;;;;;;;;19.30;62.10;;;;;;4920811;29;20283;-96
2023/05/04 09:14:35;;;;;;;;;;;19.20;62.80;;;;;;4920516;29;19961;-96
2023/05/04 09:17:11;;;;;;;;;;;19.30;67.10;;;;;;4920578;29;19921;-95
2023/05/04 09:19:37;;;;;;;;;;;19.30;62.30;;;;;;4938074;29;19950;-95
2023/05/04 09:22:13;;;;;;;;;;;19.30;61.20;;;;;;4937423;29;19911;-96
2023/05/04 09:24:38;;;;;;;;;;;19.30;66.40;;;;;;4937689;29;20260;-95
2023/05/04 09:27:08;;;;;;;;;;;19.30;62.00;;;;;;4937314;29;19926;-96
2023/05/04 09:29:38;;;;;;;;;;;19.30;63.90;;;;;;4937493;29;19911;-96
2023/05/04 09:32:03;;;;;;;;;;;19.30;62.90;;;;;;4919289;29;20363;-96
2023/05/04 09:34:29;;;;;;;;;;;19.40;62.90;;;;;;4921046;29;19911;-96
2023/05/04 09:37:01;;;;;;;;;;;19.40;60.90;;;;;;4919959;29;19954;-96
2023/05/04 09:39:27;;;;;;;;;;;19.40;61.10;;;;;;4919996;29;19918;-96
2023/05/04 09:41:53;;;;;;;;;;;19.50;59.70;;;;;;4920079;29;19910;-96
2023/05/04 09:44:20;;;;;;;;;;;19.50;59.80;;;;;;4919922;29;19917;-96
2023/05/04 09:46:54;;;;;;;;;;;19.60;60.80;;;;;;4920799;29;19911;-96
2023/05/04 09:49:35;;;;;;;;;;;19.70;59.80;;;;;;4919872;29;20359;-96
2023/05/04 09:52:02;;;;;;;;;;;19.80;60.40;;;;;;4937035;29;20525;-96
2023/05/04 09:54:30;;;;;;;;;;;19.80;58.90;;;;;;4937188;29;19911;-96
2023/05/04 09:57:00;;;;;;;;;;;19.90;61.30;;;;;;4936773;29;20039;-96
2023/05/04 09:59:30;;;;;;;;;;;19.90;57.20;;;;;;4919761;29;19911;-96
2023/05/04 10:01:56;;;;;;;;;;;19.90;59.10;;;;;;4919625;29;20009;-96
2023/05/04 10:04:22;;;;;;;;;;;20.00;62.30;;;;;;4936468;29;19914;-96
2023/05/04 10:06:48;;;;;;;;;;;20.00;60.70;;;;;;4919363;29;20080;-96
2023/05/04 10:09:14;;;;;;;;;;;20.10;58.80;;;;;;4936997;29;19911;-96
2023/05/04 10:11:41;;;;;;;;;;;20.20;57.50;;;;;;4936698;29;19910;-96
2023/05/04 10:14:07;;;;;;;;;;;20.30;61.50;;;;;;4936909;29;20014;-96
2023/05/04 10:16:56;;;;;;;;;;;20.30;55.90;;;;;;4936545;29;19937;-96
2023/05/04 10:19:40;;;;;;;;;;;20.30;63.10;;;;;;4936774;29;20264;-96
2023/05/04 10:22:24;;;;;;;;;;;20.30;60.30;;;;;;4919507;29;19958;-96
2023/05/04 10:25:03;;;;;;;;;;;20.30;59.60;;;;;;4937119;29;19911;-96
2023/05/04 10:27:44;;;;;;;;;;;20.40;59.60;;;;;;4936545;29;19918;-96
2023/05/04 10:30:10;;;;;;;;;;;20.40;59.50;;;;;;4936603;29;19911;-96
2023/05/04 10:32:38;;;;;;;;;;;20.40;57.80;;;;;;4919380;29;19917;-95
2023/05/04 10:35:05;;;;;;;;;;;20.40;56.10;;;;;;4936679;29;19911;-96
2023/05/04 10:37:31;;;;;;;;;;;20.40;58.80;;;;;;4919278;29;19915;-96
2023/05/04 10:39:57;;;;;;;;;;;20.50;57.40;;;;;;4919253;29;20291;-95
2023/05/04 10:42:22;;;;;;;;;;;20.40;53.60;;;;;;4937678;29;19919;-96
2023/05/04 10:44:49;;;;;;;;;;;20.50;53.10;;;;;;4940612;29;19973;-96
2023/05/04 10:47:25;;;;;;;;;;;20.60;53.00;;;;;;4940509;29;19915;-96
2023/05/04 10:49:59;;;;;;;;;;;20.70;51.70;;;;;;4922975;29;20026;-96
2023/05/04 10:52:24;;;;;;;;;;;20.80;55.10;;;;;;4940690;29;19918;-96
2023/05/04 10:54:57;;;;;;;;;;;20.80;58.80;;;;;;4940397;29;19914;-96
2023/05/04 10:57:22;;;;;;;;;;;20.60;56.40;;;;;;4940230;29;19937;-96
2023/05/04 10:59:58;;;;;;;;;;;20.60;55.10;;;;;;4940286;29;20431;-96
2023/05/04 11:02:25;;;;;;;;;;;20.70;55.00;;;;;;4922744;29;19933;-96
2023/05/04 11:05:00;;;;;;;;;;;20.80;56.30;;;;;;4922714;29;19934;-96
2023/05/04 11:07:36;;;;;;;;;;;21.00;54.50;;;;;;4940138;29;19918;-96
2023/05/04 11:10:02;;;;;;;;;;;21.10;55.80;;;;;;4922648;29;19915;-96
2023/05/04 11:12:28;;;;;;;;;;;21.20;56.10;;;;;;4922672;29;20375;-96
2023/05/04 11:15:06;;;;;;;;;;;21.30;56.50;;;;;;4922638;29;19915;-96
2023/05/04 11:17:32;;;;;;;;;;;21.30;56.40;;;;;;4939888;29;19923;-96
2023/05/04 11:19:59;;;;;;;;;;;21.50;56.70;;;;;;4922574;29;19917;-96
2023/05/04 11:22:28;;;;;;;;;;;21.60;52.40;;;;;;4939880;29;20270;-96
2023/05/04 11:24:54;;;;;;;;;;;21.50;53.30;;;;;;4939442;29;19966;-96
2023/05/04 11:27:29;;;;;;;;;;;21.40;53.30;;;;;;4922436;29;19915;-96
2023/05/04 11:29:59;;;;;;;;;;;21.40;53.30;;;;;;4922154;29;19911;-96
2023/05/04 11:32:34;;;;;;;;;;;21.40;52.80;;;;;;4939176;29;20371;-96
2023/05/04 11:35:00;;;;;;;;;;;21.50;51.20;;;;;;4922306;29;19911;-96
2023/05/04 11:37:27;;;;;;;;;;;21.60;49.70;;;;;;4922235;29;19915;-96
2023/05/04 11:39:53;;;;;;;;;;;21.70;50.70;;;;;;4939197;29;19934;-96
2023/05/04 11:42:19;;;;;;;;;;;21.80;53.10;;;;;;4921965;29;19911;-96
2023/05/04 11:44:45;;;;;;;;;;;21.80;50.20;;;;;;4939395;29;19910;-95
2023/05/04 11:47:12;;;;;;;;;;;21.80;52.10;;;;;;4922027;29;19911;-96
2023/05/04 11:49:38;;;;;;;;;;;22.00;52.90;;;;;;4921730;29;20427;-96
2023/05/04 11:52:05;;;;;;;;;;;22.10;52.70;;;;;;4921912;29;19915;-96
2023/05/04 11:54:31;;;;;;;;;;;22.10;52.30;;;;;;4938096;29;19911;-96
2023/05/04 11:56:57;;;;;;;;;;;22.30;50.70;;;;;;4938954;29;19981;-96
2023/05/04 11:59:23;;;;;;;;;;;22.50;52.20;;;;;;4939263;29;20309;-96
2023/05/04 12:01:48;;;;;;;;;;;22.80;50.00;;;;;;4939156;29;19918;-96
2023/05/04 12:04:14;;;;;;;;;;;22.80;48.30;;;;;;4939142;29;19918;-96
2023/05/04 12:06:45;;;;;;;;;;;22.90;50.30;;;;;;4938580;29;19923;-96
2023/05/04 12:09:10;;;;;;;;;;;22.80;50.00;;;;;;4921402;29;20010;-96
2023/05/04 12:11:39;;;;;;;;;;;22.90;46.20;;;;;;4938829;29;19998;-96
2023/05/04 12:14:06;;;;;;;;;;;23.40;46.90;;;;;;4921562;29;20054;-96
2023/05/04 12:16:31;;;;;;;;;;;23.80;48.90;;;;;;4938692;29;19915;-96
2023/05/04 12:19:04;;;;;;;;;;;24.00;50.10;;;;;;4938634;29;20330;-96
2023/05/04 12:21:30;;;;;;;;;;;23.90;49.00;;;;;;4938755;29;19911;-96
2023/05/04 12:23:56;;;;;;;;;;;23.80;48.60;;;;;;4961702;23;20313;-96
2023/05/04 12:26:22;;;;;;;;;;;23.80;47.90;;;;;;4956372;29;19910;-96
2023/05/04 12:28:47;;;;;;;;;;;24.00;50.80;;;;;;4957194;29;19933;-96
2023/05/04 12:31:13;;;;;;;;;;;24.30;47.90;;;;;;4957641;29;20286;-96
2023/05/04 12:33:39;;;;;;;;;;;24.30;46.10;;;;;;4957795;28;19910;-96
2023/05/04 12:36:05;;;;;;;;;;;24.80;45.10;;;;;;4956231;29;19946;-96
2023/05/04 12:38:30;;;;;;;;;;;25.20;46.00;;;;;;4956159;29;19915;-96
2023/05/04 12:41:01;;;;;;;;;;;25.30;49.70;;;;;;4957457;28;19910;-96
2023/05/04 12:43:27;;;;;;;;;;;25.20;45.20;;;;;;4952100;29;19911;-96
2023/05/04 12:45:52;;;;;;;;;;;25.00;43.30;;;;;;4938195;29;20002;-96
2023/05/04 12:48:30;;;;;;;;;;;25.10;44.10;;;;;;4938136;29;19947;-95
2023/05/04 12:50:56;;;;;;;;;;;25.20;41.90;;;;;;4937944;29;19911;-96
2023/05/04 12:53:24;;;;;;;;;;;25.70;42.60;;;;;;4936755;29;19918;-96
2023/05/04 12:55:50;;;;;;;;;;;26.40;45.20;;;;;;4936489;29;19961;-96
2023/05/04 12:58:15;;;;;;;;;;;27.20;43.20;;;;;;4937921;29;19962;-96
2023/05/04 13:00:42;;;;;;;;;;;27.60;42.20;;;;;;4939687;29;19918;-96
2023/05/04 13:03:11;;;;;;;;;;;27.70;43.10;;;;;;4960658;28;19911;-96
2023/05/04 13:05:50;;;;;;;;;;;27.40;40.60;;;;;;4948491;29;19998;-96
2023/05/04 13:08:17;;;;;;;;;;;27.30;40.70;;;;;;4946689;29;19911;-96
2023/05/04 13:10:48;;;;;;;;;;;27.30;45.50;;;;;;4953907;29;20062;-96
2023/05/04 13:13:16;;;;;;;;;;;27.50;40.80;;;;;;4952405;29;19917;-96
2023/05/04 13:15:51;;;;;;;;;;;28.00;41.80;;;;;;4959400;28;19931;-96
2023/05/04 13:18:18;;;;;;;;;;;28.00;40.10;;;;;;4951312;29;19927;-96
2023/05/04 13:20:44;;;;;;;;;;;28.30;42.10;;;;;;4940355;29;20283;-96
2023/05/04 13:23:13;;;;;;;;;;;28.70;37.90;;;;;;4938647;29;19922;-96
2023/05/04 13:25:39;;;;;;;;;;;29.10;38.70;;;;;;4939910;29;19921;-96
2023/05/04 13:28:04;;;;;;;;;;;29.20;39.20;;;;;;4938897;29;19974;-96
2023/05/04 13:30:30;;;;;;;;;;;29.20;37.90;;;;;;4936691;29;19911;-96
2023/05/04 13:32:56;;;;;;;;;;;28.80;38.60;;;;;;4937484;29;19962;-96
2023/05/04 13:35:22;;;;;;;;;;;28.60;40.00;;;;;;4937528;29;19911;-96
2023/05/04 13:37:48;;;;;;;;;;;27.80;40.40;;;;;;4935960;29;19941;-96
2023/05/04 13:40:13;;;;;;;;;;;26.80;42.60;;;;;;4935868;29;20477;-96
2023/05/04 13:42:39;;;;;;;;;;;26.70;42.70;;;;;;4936002;29;19917;-96
2023/05/04 13:45:05;;;;;;;;;;;27.10;42.60;;;;;;4935840;29;19918;-96
2023/05/04 13:47:32;;;;;;;;;;;27.40;44.40;;;;;;4937249;29;20279;-96
2023/05/04 13:49:58;;;;;;;;;;;27.30;44.90;;;;;;4935980;29;20053;-96
2023/05/04 13:52:23;;;;;;;;;;;27.50;42.70;;;;;;4937708;29;20393;-96
2023/05/04 13:54:49;;;;;;;;;;;27.50;42.40;;;;;;4936264;29;20328;-96
2023/05/04 13:57:15;;;;;;;;;;;27.90;42.10;;;;;;4935815;29;20017;-96
2023/05/04 13:59:40;;;;;;;;;;;27.20;41.10;;;;;;4935632;29;19911;-96
2023/05/04 14:02:06;;;;;;;;;;;26.50;42.60;;;;;;4935683;29;20379;-96
2023/05/04 14:04:32;;;;;;;;;;;26.20;43.90;;;;;;4935644;29;20017;-96
2023/05/04 14:06:57;;;;;;;;;;;26.20;45.90;;;;;;4935430;29;19914;-96
2023/05/04 14:09:24;;;;;;;;;;;26.10;44.10;;;;;;4936823;29;19911;-96
2023/05/04 14:11:50;;;;;;;;;;;26.10;44.90;;;;;;4935395;29;19952;-96
2023/05/04 14:14:15;;;;;;;;;;;25.70;46.00;;;;;;4936847;29;19950;-96
2023/05/04 14:16:41;;;;;;;;;;;25.20;45.00;;;;;;4934839;29;19915;-96
2023/05/04 14:19:07;;;;;;;;;;;24.70;50.80;;;;;;4937041;29;19962;-96
2023/05/04 14:21:34;;;;;;;;;;;24.90;47.50;;;;;;4936965;29;20394;-96
2023/05/04 14:24:00;;;;;;;;;;;25.50;50.90;;;;;;4935306;29;19923;-96
2023/05/04 14:26:25;;;;;;;;;;;26.00;45.90;;;;;;4935937;29;19977;-96
2023/05/04 14:28:51;;;;;;;;;;;26.00;44.30;;;;;;4935307;29;20399;-96
2023/05/04 14:31:17;;;;;;;;;;;25.90;46.10;;;;;;4935552;29;19914;-96
2023/05/04 14:33:42;;;;;;;;;;;26.00;46.40;;;;;;4935754;29;19934;-96
2023/05/04 14:36:11;;;;;;;;;;;26.50;43.60;;;;;;4937075;29;19917;-96
2023/05/04 14:38:37;;;;;;;;;;;26.80;42.50;;;;;;4935806;29;19986;-96
2023/05/04 14:41:03;;;;;;;;;;;27.10;42.00;;;;;;4936233;29;20364;-96
2023/05/04 14:43:29;;;;;;;;;;;27.60;42.00;;;;;;4937806;29;19911;-96
2023/05/04 14:45:55;;;;;;;;;;;27.60;41.60;;;;;;4936302;29;20351;-96
2023/05/04 14:48:25;;;;;;;;;;;27.70;42.10;;;;;;4937995;29;19917;-96
2023/05/04 14:50:51;;;;;;;;;;;28.00;41.90;;;;;;4938878;29;19911;-96
2023/05/04 14:53:17;;;;;;;;;;;28.20;41.70;;;;;;4938207;29;19977;-96
2023/05/04 14:55:43;;;;;;;;;;;28.60;42.10;;;;;;4938442;29;20323;-96
2023/05/04 14:58:08;;;;;;;;;;;29.10;37.10;;;;;;4936073;29;19914;-96
2023/05/04 15:00:34;;;;;;;;;;;29.20;39.20;;;;;;4935295;29;19911;-96
2023/05/04 15:03:00;;;;;;;;;;;29.00;37.90;;;;;;4935487;29;19910;-96
2023/05/04 15:05:25;;;;;;;;;;;29.10;38.40;;;;;;4935722;29;19911;-96
2023/05/04 15:07:51;;;;;;;;;;;28.80;36.80;;;;;;4936294;29;19993;-96
2023/05/04 15:10:17;;;;;;;;;;;28.40;39.40;;;;;;4936881;29;19918;-96
2023/05/04 15:12:42;;;;;;;;;;;28.00;39.70;;;;;;4935411;29;19910;-96
2023/05/04 15:15:08;;;;;;;;;;;28.00;40.20;;;;;;4937040;29;19914;-96
2023/05/04 15:17:34;;;;;;;;;;;28.20;40.00;;;;;;4935528;29;19922;-96
2023/05/04 15:20:00;;;;;;;;;;;28.30;40.30;;;;;;4935417;29;20298;-96
2023/05/04 15:22:26;;;;;;;;;;;28.60;39.90;;;;;;4934948;29;19922;-96
2023/05/04 15:24:52;;;;;;;;;;;28.60;38.20;;;;;;4936485;29;19949;-96
2023/05/04 15:27:18;;;;;;;;;;;28.40;38.80;;;;;;4936298;29;20311;-96
2023/05/04 15:29:44;;;;;;;;;;;28.20;39.90;;;;;;4938284;29;19917;-96
2023/05/04 15:32:10;;;;;;;;;;;28.20;41.90;;;;;;4939803;29;20390;-96
2023/05/04 15:34:36;;;;;;;;;;;27.90;40.10;;;;;;4939486;28;19918;-96
2023/05/04 15:37:01;;;;;;;;;;;27.50;40.40;;;;;;4938077;29;19915;-96
2023/05/04 15:39:27;;;;;;;;;;;27.00;41.00;;;;;;4938334;29;19915;-96
2023/05/04 15:41:55;;;;;;;;;;;26.80;40.80;;;;;;4938027;29;20272;-96
2023/05/04 15:44:21;;;;;;;;;;;26.60;44.50;;;;;;4937899;29;19951;-96
2023/05/04 15:46:47;;;;;;;;;;;26.50;41.90;;;;;;4938237;29;19911;-96
2023/05/04 15:49:13;;;;;;;;;;;26.10;43.90;;;;;;4938030;29;19959;-96
2023/05/04 15:51:38;;;;;;;;;;;26.10;46.90;;;;;;4937878;29;19911;-96
2023/05/04 15:54:04;;;;;;;;;;;26.30;44.20;;;;;;4937928;29;20291;-96
2023/05/04 15:56:29;;;;;;;;;;;26.30;44.90;;;;;;4937902;29;19961;-96
2023/05/04 15:58:55;;;;;;;;;;;26.30;43.80;;;;;;4939075;29;19911;-96
2023/05/04 16:01:21;;;;;;;;;;;26.30;43.30;;;;;;4937795;29;20017;-96
2023/05/04 16:03:46;;;;;;;;;;;26.20;44.70;;;;;;4937977;29;19918;-96
2023/05/04 16:06:14;;;;;;;;;;;26.30;43.80;;;;;;4937742;29;19911;-96
2023/05/04 16:08:39;;;;;;;;;;;26.40;44.50;;;;;;4937748;29;19918;-96
2023/05/04 16:11:06;;;;;;;;;;;26.30;42.90;;;;;;4937810;29;19911;-96
2023/05/04 16:13:32;;;;;;;;;;;26.30;43.30;;;;;;4939478;29;19911;-96
2023/05/04 16:15:57;;;;;;;;;;;26.30;44.80;;;;;;4937152;29;19921;-96
2023/05/04 16:18:23;;;;;;;;;;;26.00;43.60;;;;;;4937269;29;19915;-96
2023/05/04 16:20:49;;;;;;;;;;;25.60;45.00;;;;;;4938629;29;19911;-96
2023/05/04 16:23:16;;;;;;;;;;;25.20;44.70;;;;;;4937147;29;19922;-96
2023/05/04 16:25:41;;;;;;;;;;;24.90;47.80;;;;;;4937293;29;19911;-96
2023/05/04 16:28:07;;;;;;;;;;;24.60;46.40;;;;;;4939040;29;20036;-96
2023/05/04 16:30:33;;;;;;;;;;;24.30;45.80;;;;;;4938831;29;19911;-96
2023/05/04 16:32:59;;;;;;;;;;;24.30;48.90;;;;;;4937019;29;19910;-96
2023/05/04 16:35:25;;;;;;;;;;;24.20;47.60;;;;;;4938388;29;19946;-96
2023/05/04 16:37:50;;;;;;;;;;;24.20;49.10;;;;;;4937088;29;19970;-96
2023/05/04 16:40:16;;;;;;;;;;;24.10;46.60;;;;;;4936448;29;19910;-96